Time;durP1;ratioP1;P1;durP2;ratioP2;P2;SDS_P1;SDS_P2;PMS_P1;PMS_P2;Temp;Humidity;BMP_temperature;BMP_pressure;BME280_temperature;BME280_humidity;BME280_pressure;Samples;Min_cycle;Max_cycle;Signal;HPM_P1;HPM_P2
2024/03/19 00:00:55;;;;;;;5.03;4.50;;;6.20;99.90;;;;;;493852;241;28822;-73
2024/03/19 00:02:59;;;;;;;9.57;5.43;;;6.10;99.90;;;;;;493869;241;28709;-73
2024/03/19 00:12:55;;;;;;;4.80;4.40;;;6.00;99.90;;;;;;493989;241;27398;-73
2024/03/19 00:20:13;;;;;;;4.03;3.70;;;6.00;99.90;;;;;;493948;241;27421;-71
2024/03/19 00:22:15;;;;;;;5.10;4.60;;;6.00;99.90;;;;;;493981;241;27474;-71
2024/03/19 00:24:16;;;;;;;4.40;4.00;;;6.00;99.90;;;;;;493832;241;28873;-71
2024/03/19 00:26:17;;;;;;;4.62;4.07;;;5.90;99.90;;;;;;493965;241;27572;-71
2024/03/19 00:28:19;;;;;;;4.22;3.55;;;5.90;99.90;;;;;;493827;237;27604;-72
2024/03/19 00:30:20;;;;;;;4.40;4.00;;;5.90;99.90;;;;;;493977;241;28065;-75
2024/03/19 00:32:21;;;;;;;4.22;3.83;;;5.90;99.90;;;;;;493835;241;28262;-73
2024/03/19 00:34:22;;;;;;;3.90;3.60;;;5.90;99.90;;;;;;493946;241;27542;-73
2024/03/19 00:36:24;;;;;;;6.22;3.58;;;5.90;99.90;;;;;;493919;241;27517;-71
2024/03/19 00:38:26;;;;;;;3.55;3.25;;;5.90;99.90;;;;;;493858;241;27614;-73
2024/03/19 00:40:26;;;;;;;4.20;3.80;;;5.80;99.90;;;;;;493923;241;27516;-74
2024/03/19 00:42:27;;;;;;;5.12;3.78;;;5.80;99.90;;;;;;493966;241;27468;-73
2024/03/19 00:44:29;;;;;;;6.05;3.50;;;5.80;99.90;;;;;;493938;241;28174;-73
2024/03/19 00:46:30;;;;;;;3.85;3.45;;;5.70;99.90;;;;;;493899;241;27913;-73
2024/03/19 00:48:31;;;;;;;4.00;3.70;;;5.70;99.90;;;;;;493919;241;27550;-73
2024/03/19 00:50:32;;;;;;;4.85;4.30;;;5.70;99.90;;;;;;493962;241;27521;-74
2024/03/19 00:52:34;;;;;;;3.67;3.33;;;5.70;99.90;;;;;;493938;241;27617;-73
2024/03/19 00:54:35;;;;;;;8.27;4.05;;;5.70;99.90;;;;;;493901;237;27525;-73
2024/03/19 00:56:36;;;;;;;4.37;3.75;;;5.70;99.90;;;;;;493948;237;27514;-74
2024/03/19 00:58:37;;;;;;;4.05;3.70;;;5.70;99.90;;;;;;493889;237;27907;-74
2024/03/19 01:00:39;;;;;;;5.00;3.70;;;5.60;99.90;;;;;;493802;241;27594;-71
2024/03/19 01:02:40;;;;;;;4.10;3.45;;;5.60;99.90;;;;;;493883;241;27485;-73
2024/03/19 01:04:41;;;;;;;5.37;4.10;;;5.50;99.90;;;;;;493833;241;27525;-74
2024/03/19 01:06:42;;;;;;;4.93;4.30;;;5.50;99.90;;;;;;493960;241;27550;-74
2024/03/19 01:08:44;;;;;;;5.65;4.22;;;5.50;99.90;;;;;;493874;241;27637;-73
2024/03/19 01:10:45;;;;;;;5.40;4.60;;;5.50;99.90;;;;;;493907;241;27996;-73
2024/03/19 01:12:46;;;;;;;7.18;5.10;;;5.60;99.90;;;;;;493898;241;28013;-73
2024/03/19 01:14:47;;;;;;;6.03;4.80;;;5.60;99.90;;;;;;493953;241;27475;-73
2024/03/19 01:16:49;;;;;;;10.13;4.90;;;5.50;99.90;;;;;;493941;241;27552;-72
2024/03/19 01:18:50;;;;;;;8.23;4.40;;;5.60;99.90;;;;;;493918;241;27560;-71
2024/03/19 01:20:53;;;;;;;4.35;3.95;;;5.60;99.90;;;;;;493929;241;27619;-71
2024/03/19 01:22:52;;;;;;;4.00;3.60;;;5.70;99.90;;;;;;493843;241;27535;-75
2024/03/19 01:24:54;;;;;;;3.30;3.00;;;5.70;99.90;;;;;;493969;241;28199;-74
2024/03/19 01:26:55;;;;;;;3.70;3.40;;;5.50;99.90;;;;;;493960;241;28087;-73
2024/03/19 01:28:56;;;;;;;4.00;3.40;;;5.40;99.90;;;;;;493887;241;27595;-73
2024/03/19 01:30:58;;;;;;;4.20;3.80;;;5.40;99.90;;;;;;493938;241;27542;-71
2024/03/19 01:32:59;;;;;;;3.65;3.35;;;5.30;99.90;;;;;;493968;241;27548;-72
2024/03/19 01:35:00;;;;;;;4.03;2.97;;;5.30;99.90;;;;;;493973;241;27895;-71
2024/03/19 01:37:01;;;;;;;3.30;3.00;;;5.30;99.90;;;;;;493854;241;27605;-71
2024/03/19 01:39:03;;;;;;;3.83;3.30;;;5.30;99.90;;;;;;493898;241;28856;-73
2024/03/19 01:41:04;;;;;;;3.42;3.12;;;5.30;99.90;;;;;;493959;241;27991;-71
2024/03/19 01:43:05;;;;;;;5.78;3.83;;;5.30;99.90;;;;;;493931;241;27509;-74
2024/03/19 01:45:06;;;;;;;5.47;4.37;;;5.30;99.90;;;;;;493907;241;27563;-70
2024/03/19 01:47:08;;;;;;;3.97;3.58;;;5.20;99.90;;;;;;493887;241;27510;-74
2024/03/19 01:49:09;;;;;;;4.70;3.90;;;5.20;99.90;;;;;;493911;241;27918;-76
2024/03/19 01:51:10;;;;;;;3.50;3.20;;;5.10;99.90;;;;;;493968;241;27566;-73
2024/03/19 01:53:11;;;;;;;3.92;3.50;;;5.20;99.90;;;;;;493962;237;28007;-72
2024/03/19 01:55:13;;;;;;;4.12;3.78;;;5.20;99.90;;;;;;493889;241;27942;-71
2024/03/19 01:57:14;;;;;;;3.58;3.28;;;5.20;99.90;;;;;;493932;241;27521;-71
2024/03/19 01:59:16;;;;;;;4.50;4.10;;;5.20;99.90;;;;;;493921;241;27530;-72
2024/03/19 02:01:16;;;;;;;3.78;3.47;;;5.20;99.90;;;;;;493927;237;27441;-70
2024/03/19 02:03:18;;;;;;;3.50;3.20;;;5.10;99.90;;;;;;493932;241;27509;-72
2024/03/19 02:05:19;;;;;;;3.75;3.45;;;5.20;99.90;;;;;;493932;241;27555;-72
2024/03/19 02:07:20;;;;;;;3.50;3.20;;;5.20;99.90;;;;;;493944;237;27958;-71
2024/03/19 02:09:21;;;;;;;3.50;3.20;;;5.20;99.90;;;;;;493915;241;28057;-72
2024/03/19 02:11:23;;;;;;;3.42;3.12;;;5.20;99.90;;;;;;493950;241;27586;-72
2024/03/19 02:13:24;;;;;;;4.85;3.65;;;5.20;99.90;;;;;;493915;241;27506;-71
2024/03/19 02:15:25;;;;;;;3.60;3.30;;;5.30;99.90;;;;;;493927;241;27520;-73
2024/03/19 02:17:26;;;;;;;3.62;2.80;;;5.20;99.90;;;;;;493987;241;27603;-72
2024/03/19 02:19:29;;;;;;;4.72;3.20;;;5.20;99.90;;;;;;493956;241;28069;-72
2024/03/19 02:21:29;;;;;;;2.75;2.55;;;5.20;99.90;;;;;;493901;241;27927;-74
2024/03/19 02:23:30;;;;;;;2.90;2.70;;;5.20;99.90;;;;;;493979;241;27509;-73
2024/03/19 02:25:31;;;;;;;2.67;2.47;;;5.10;99.90;;;;;;493991;241;27510;-73
2024/03/19 02:27:33;;;;;;;2.70;2.50;;;5.10;99.90;;;;;;493812;241;27470;-72
2024/03/19 02:29:34;;;;;;;2.28;2.17;;;5.00;99.90;;;;;;493877;241;27530;-72
2024/03/19 02:31:35;;;;;;;2.10;1.90;;;5.00;99.90;;;;;;493956;241;27469;-74
2024/03/19 02:33:37;;;;;;;3.40;3.10;;;5.00;99.90;;;;;;493989;241;27961;-71
2024/03/19 02:35:38;;;;;;;2.15;2.05;;;5.00;99.90;;;;;;493979;237;28042;-72
2024/03/19 02:37:39;;;;;;;2.90;2.70;;;5.00;99.90;;;;;;493960;241;27469;-71
2024/03/19 02:39:40;;;;;;;3.17;2.30;;;4.90;99.90;;;;;;493932;241;27542;-71
2024/03/19 02:41:42;;;;;;;2.67;2.47;;;4.90;99.90;;;;;;494039;241;27540;-72
2024/03/19 02:43:43;;;;;;;2.85;2.65;;;4.80;99.90;;;;;;493987;241;27586;-71
2024/03/19 02:45:44;;;;;;;3.03;2.40;;;4.80;99.90;;;;;;494010;241;27521;-72
2024/03/19 02:47:46;;;;;;;2.53;2.30;;;4.80;99.90;;;;;;493973;241;27531;-71
2024/03/19 02:49:47;;;;;;;2.90;2.70;;;4.90;99.90;;;;;;493846;237;28000;-71
2024/03/19 02:51:48;;;;;;;3.47;3.17;;;4.80;99.90;;;;;;494026;241;28116;-72
2024/03/19 02:53:49;;;;;;;2.80;2.60;;;4.80;99.90;;;;;;493978;241;27458;-71
2024/03/19 02:55:50;;;;;;;3.00;2.80;;;4.80;99.90;;;;;;493958;241;27608;-71
2024/03/19 02:57:52;;;;;;;3.08;2.78;;;4.80;99.90;;;;;;493947;241;27639;-71
2024/03/19 02:59:53;;;;;;;3.25;2.95;;;4.80;99.90;;;;;;493945;241;27473;-72
2024/03/19 03:01:56;;;;;;;2.87;2.65;;;4.80;99.90;;;;;;493985;241;27585;-72
2024/03/19 03:03:55;;;;;;;2.60;2.40;;;4.80;99.90;;;;;;493852;241;27514;-71
2024/03/19 03:05:57;;;;;;;2.47;2.28;;;4.80;99.90;;;;;;493967;241;28048;-71
2024/03/19 03:07:58;;;;;;;3.20;3.00;;;4.70;99.90;;;;;;493992;241;28057;-74
2024/03/19 03:09:59;;;;;;;2.85;2.65;;;4.70;99.90;;;;;;493953;241;27467;-72
2024/03/19 03:12:00;;;;;;;2.53;2.42;;;4.80;99.90;;;;;;493979;241;27509;-72
2024/03/19 03:14:02;;;;;;;2.87;2.67;;;4.90;99.90;;;;;;493916;241;27545;-72
2024/03/19 03:16:03;;;;;;;2.50;2.30;;;5.00;99.90;;;;;;493945;241;27648;-71
2024/03/19 03:18:04;;;;;;;3.00;2.80;;;5.10;99.90;;;;;;493957;241;27518;-72
2024/03/19 03:20:05;;;;;;;2.42;2.22;;;5.10;99.90;;;;;;493979;241;27554;-71
2024/03/19 03:22:07;;;;;;;2.78;2.58;;;5.30;99.90;;;;;;493938;237;27979;-72
2024/03/19 03:24:09;;;;;;;2.90;2.70;;;5.40;99.90;;;;;;493906;241;27935;-72
2024/03/19 03:26:09;;;;;;;2.70;2.50;;;5.40;99.90;;;;;;493889;241;27573;-72
2024/03/19 03:28:10;;;;;;;3.30;3.05;;;5.50;99.90;;;;;;493939;241;27505;-72
2024/03/19 03:30:12;;;;;;;2.78;2.50;;;5.60;99.90;;;;;;493951;237;27561;-71
2024/03/19 03:32:13;;;;;;;2.47;2.17;;;5.70;99.90;;;;;;493953;241;27690;-72
2024/03/19 03:34:14;;;;;;;3.10;2.80;;;5.80;99.90;;;;;;493983;241;27541;-74
2024/03/19 03:36:16;;;;;;;2.75;2.55;;;5.80;99.90;;;;;;493999;241;27938;-74
2024/03/19 03:38:17;;;;;;;2.90;2.70;;;5.80;99.90;;;;;;493903;241;28056;-71
2024/03/19 03:40:18;;;;;;;8.05;4.95;;;5.90;99.90;;;;;;493954;241;27470;-74
2024/03/19 03:42:19;;;;;;;6.55;4.20;;;5.90;99.90;;;;;;493930;241;27623;-74
2024/03/19 03:44:21;;;;;;;8.45;2.65;;;5.90;99.90;;;;;;494002;241;27532;-75
2024/03/19 03:46:22;;;;;;;4.57;3.20;;;6.00;99.90;;;;;;493978;241;27477;-71
2024/03/19 03:48:23;;;;;;;9.60;3.70;;;6.10;99.90;;;;;;493884;241;28350;-72
2024/03/19 03:50:24;;;;;;;4.82;2.90;;;6.20;99.90;;;;;;493915;241;28921;-71
2024/03/19 03:52:29;;;;;;;3.35;2.55;;;6.20;99.90;;;;;;493995;241;28032;-71
2024/03/19 03:54:27;;;;;;;8.02;3.10;;;6.20;99.90;;;;;;493707;241;27625;-72
2024/03/19 03:56:28;;;;;;;9.63;3.67;;;6.20;99.90;;;;;;493963;241;27475;-71
2024/03/19 03:58:29;;;;;;;5.70;3.15;;;6.20;99.90;;;;;;493856;241;28857;-71
2024/03/19 04:00:33;;;;;;;24.13;3.90;;;6.20;99.90;;;;;;493977;241;27568;-75
2024/03/19 04:02:32;;;;;;;6.37;3.40;;;6.20;99.90;;;;;;493826;241;28812;-73
2024/03/19 04:04:33;;;;;;;26.53;5.30;;;6.20;99.90;;;;;;493961;241;27502;-74
2024/03/19 04:06:34;;;;;;;16.17;4.03;;;6.30;99.90;;;;;;493967;241;28191;-73
2024/03/19 04:08:36;;;;;;;33.30;5.80;;;6.20;99.90;;;;;;493870;241;28431;-73
2024/03/19 04:10:37;;;;;;;7.23;3.67;;;6.20;99.90;;;;;;494012;241;27599;-74
2024/03/19 04:12:38;;;;;;;33.70;5.77;;;6.20;99.90;;;;;;493975;241;28020;-72
2024/03/19 04:14:39;;;;;;;8.03;4.60;;;6.20;99.90;;;;;;493940;237;28926;-74
2024/03/19 04:16:41;;;;;;;52.30;6.17;;;6.30;99.90;;;;;;493915;241;28397;-73
2024/03/19 04:18:42;;;;;;;31.50;5.50;;;6.30;99.90;;;;;;493910;237;28838;-73
2024/03/19 04:20:43;;;;;;;6.07;4.03;;;6.40;99.90;;;;;;493988;241;27953;-74
2024/03/19 04:22:44;;;;;;;11.97;4.63;;;6.40;99.90;;;;;;493976;241;27512;-73
2024/03/19 04:24:46;;;;;;;16.45;4.78;;;6.40;99.90;;;;;;493929;241;28881;-73
2024/03/19 04:26:47;;;;;;;13.47;5.27;;;6.40;99.90;;;;;;493848;237;28850;-72
2024/03/19 04:28:48;;;;;;;18.93;4.83;;;6.30;99.90;;;;;;493764;241;28462;-73
2024/03/19 04:30:49;;;;;;;12.50;4.97;;;6.30;99.90;;;;;;493949;241;28700;-74
2024/03/19 04:32:51;;;;;;;13.73;5.00;;;6.30;99.90;;;;;;493920;241;28469;-73
2024/03/19 04:34:52;;;;;;;16.98;5.72;;;6.40;99.90;;;;;;493887;241;27646;-74
2024/03/19 04:36:53;;;;;;;15.77;5.10;;;6.40;99.90;;;;;;493978;241;27874;-75
2024/03/19 04:38:54;;;;;;;10.00;4.73;;;6.40;99.90;;;;;;493924;241;27546;-73
2024/03/19 04:40:56;;;;;;;28.17;5.67;;;6.40;99.90;;;;;;493942;241;28102;-73
2024/03/19 04:42:57;;;;;;;8.63;4.37;;;6.40;99.90;;;;;;493920;241;29352;-73
2024/03/19 04:44:58;;;;;;;8.30;4.60;;;6.30;99.90;;;;;;493927;241;28557;-74
2024/03/19 04:46:59;;;;;;;6.30;4.20;;;6.30;99.90;;;;;;493992;241;28093;-74
2024/03/19 04:49:01;;;;;;;8.40;4.23;;;6.30;99.90;;;;;;493924;241;28024;-73
2024/03/19 04:51:02;;;;;;;9.73;4.67;;;6.30;99.90;;;;;;493943;241;28954;-73
2024/03/19 04:53:03;;;;;;;20.65;4.12;;;6.20;99.90;;;;;;493928;241;27979;-71
2024/03/19 04:55:04;;;;;;;9.55;4.53;;;6.10;99.90;;;;;;493966;241;27524;-73
2024/03/19 04:57:06;;;;;;;6.30;3.57;;;6.00;99.90;;;;;;493944;237;27532;-74
2024/03/19 04:59:07;;;;;;;5.47;3.92;;;6.10;99.90;;;;;;493921;241;27928;-73
2024/03/19 05:01:08;;;;;;;5.40;3.95;;;6.10;99.90;;;;;;493912;241;27538;-72
2024/03/19 05:03:09;;;;;;;9.40;3.90;;;6.10;99.90;;;;;;494000;237;28039;-72
2024/03/19 05:05:12;;;;;;;8.47;4.10;;;6.10;99.90;;;;;;493992;241;28155;-71
2024/03/19 05:07:12;;;;;;;13.85;4.20;;;6.10;99.90;;;;;;493875;241;28589;-73
2024/03/19 05:09:15;;;;;;;6.10;4.00;;;5.90;99.90;;;;;;493902;241;27473;-71
2024/03/19 05:11:14;;;;;;;6.00;4.50;;;5.80;99.90;;;;;;493859;241;28663;-72
2024/03/19 05:13:16;;;;;;;8.60;4.53;;;5.70;99.90;;;;;;494020;241;27597;-76
2024/03/19 05:15:17;;;;;;;9.25;4.70;;;5.70;99.90;;;;;;493981;241;28900;-74
2024/03/19 05:17:18;;;;;;;6.05;4.37;;;5.60;99.90;;;;;;493964;241;27536;-74
2024/03/19 05:19:20;;;;;;;4.72;3.75;;;5.70;99.90;;;;;;493914;241;28038;-71
2024/03/19 05:21:21;;;;;;;5.97;4.62;;;5.70;99.90;;;;;;493979;241;27951;-73
2024/03/19 05:23:22;;;;;;;4.43;3.72;;;5.70;99.90;;;;;;493984;241;27517;-72
2024/03/19 05:25:23;;;;;;;6.07;4.17;;;5.70;99.90;;;;;;493969;241;27466;-73
2024/03/19 05:27:25;;;;;;;4.10;3.67;;;5.70;99.90;;;;;;493965;241;28875;-74
2024/03/19 05:29:26;;;;;;;4.53;3.72;;;5.60;99.90;;;;;;493970;241;27607;-76
2024/03/19 05:31:27;;;;;;;7.95;6.10;;;5.60;99.90;;;;;;494017;241;27485;-73
2024/03/19 05:33:28;;;;;;;10.85;7.75;;;5.60;99.90;;;;;;493992;241;27543;-71
2024/03/19 05:35:30;;;;;;;7.65;5.60;;;5.60;99.90;;;;;;493995;241;27916;-72
2024/03/19 05:37:31;;;;;;;7.47;4.70;;;5.60;99.90;;;;;;493958;241;27510;-72
2024/03/19 05:39:32;;;;;;;6.93;4.50;;;5.70;99.90;;;;;;493955;237;27620;-72
2024/03/19 05:41:33;;;;;;;6.97;4.07;;;5.70;99.90;;;;;;493998;241;27475;-71
2024/03/19 05:43:35;;;;;;;5.80;3.90;;;5.70;99.90;;;;;;493955;241;27523;-72
2024/03/19 05:45:36;;;;;;;4.47;3.53;;;5.70;99.90;;;;;;493937;241;27473;-74
2024/03/19 05:47:37;;;;;;;4.90;3.67;;;5.70;99.90;;;;;;493983;237;27947;-73
2024/03/19 05:49:38;;;;;;;6.28;4.68;;;5.70;99.90;;;;;;493952;241;29318;-72
2024/03/19 05:51:40;;;;;;;5.78;4.22;;;5.80;99.90;;;;;;493943;241;27958;-71
2024/03/19 05:53:41;;;;;;;6.50;3.50;;;5.90;99.90;;;;;;493904;241;27539;-71
2024/03/19 05:55:42;;;;;;;5.35;3.70;;;5.90;99.90;;;;;;493908;241;27504;-71
2024/03/19 05:57:43;;;;;;;6.20;3.97;;;6.00;99.90;;;;;;493962;241;27462;-71
2024/03/19 05:59:45;;;;;;;7.05;4.45;;;6.00;99.90;;;;;;493877;241;28871;-72
2024/03/19 06:01:46;;;;;;;7.68;4.85;;;6.00;99.90;;;;;;493870;241;27469;-72
2024/03/19 06:03:47;;;;;;;8.98;5.75;;;6.10;99.90;;;;;;493903;237;27982;-72
2024/03/19 06:05:48;;;;;;;8.80;5.72;;;6.10;99.90;;;;;;493972;241;28001;-75
2024/03/19 06:07:50;;;;;;;10.27;6.57;;;6.10;99.90;;;;;;493942;241;27483;-71
2024/03/19 06:09:51;;;;;;;7.90;5.70;;;6.10;99.90;;;;;;493912;241;28196;-72
2024/03/19 06:11:52;;;;;;;6.43;4.97;;;6.20;99.90;;;;;;493960;237;28084;-71
2024/03/19 06:13:53;;;;;;;9.00;5.23;;;6.20;99.90;;;;;;493990;241;27485;-71
2024/03/19 06:15:55;;;;;;;6.47;5.30;;;6.30;99.90;;;;;;493985;241;28862;-72
2024/03/19 06:17:56;;;;;;;5.15;4.35;;;6.40;99.90;;;;;;493964;241;27718;-71
2024/03/19 06:19:57;;;;;;;7.40;5.23;;;6.40;99.90;;;;;;493915;241;27998;-72
2024/03/19 06:21:58;;;;;;;6.73;4.60;;;6.40;99.90;;;;;;494009;241;28807;-73
2024/03/19 06:24:00;;;;;;;5.45;4.40;;;6.50;99.90;;;;;;493989;241;29284;-71
2024/03/19 06:26:01;;;;;;;5.63;4.40;;;6.50;99.90;;;;;;493996;241;27509;-72
2024/03/19 06:28:03;;;;;;;5.90;4.70;;;6.60;99.90;;;;;;493903;241;28804;-71
2024/03/19 06:30:05;;;;;;;6.20;5.00;;;6.70;99.90;;;;;;493904;241;27866;-73
2024/03/19 06:32:05;;;;;;;6.20;5.00;;;6.70;99.90;;;;;;493939;241;28198;-72
2024/03/19 06:34:06;;;;;;;4.80;4.13;;;6.70;99.90;;;;;;493979;241;27951;-71
2024/03/19 06:36:07;;;;;;;5.50;4.40;;;6.80;99.90;;;;;;493986;241;28100;-73
2024/03/19 06:38:08;;;;;;;5.60;4.53;;;6.90;99.90;;;;;;493846;241;27958;-73
2024/03/19 06:40:10;;;;;;;7.33;5.10;;;6.90;99.90;;;;;;493921;241;28082;-73
2024/03/19 06:42:11;;;;;;;6.80;4.90;;;7.00;99.90;;;;;;494002;241;28846;-73
2024/03/19 06:44:12;;;;;;;11.60;5.23;;;7.00;99.90;;;;;;493712;241;27456;-73
2024/03/19 06:46:13;;;;;;;9.93;4.70;;;6.90;99.90;;;;;;493942;241;28107;-73
2024/03/19 06:48:15;;;;;;;8.30;5.27;;;6.90;99.90;;;;;;493869;241;28390;-73
2024/03/19 06:50:19;;;;;;;7.23;5.00;;;6.90;99.90;;;;;;493982;241;28221;-73
2024/03/19 06:52:17;;;;;;;8.30;5.10;;;7.00;99.90;;;;;;493755;241;28089;-74
2024/03/19 06:54:18;;;;;;;7.77;5.40;;;7.00;99.90;;;;;;493919;241;28516;-73
2024/03/19 06:56:20;;;;;;;9.27;5.53;;;7.10;99.90;;;;;;493944;241;28416;-73
2024/03/19 06:58:21;;;;;;;7.20;5.33;;;7.10;99.90;;;;;;493920;241;29016;-74
2024/03/19 07:00:22;;;;;;;6.90;4.83;;;7.10;99.90;;;;;;493977;241;27937;-73
2024/03/19 07:02:24;;;;;;;6.93;5.40;;;7.20;99.90;;;;;;493966;241;28056;-74
2024/03/19 07:04:27;;;;;;;8.13;5.03;;;7.20;99.90;;;;;;493948;241;27948;-73
2024/03/19 07:06:26;;;;;;;5.40;4.90;;;7.30;99.90;;;;;;493764;241;28060;-74
2024/03/19 07:08:27;;;;;;;3.93;3.53;;;7.40;99.90;;;;;;493935;241;27870;-74
2024/03/19 07:10:28;;;;;;;4.50;3.37;;;7.40;99.90;;;;;;493969;241;27988;-73
2024/03/19 07:12:30;;;;;;;5.70;3.53;;;7.50;99.90;;;;;;493949;241;27972;-74
2024/03/19 07:14:31;;;;;;;4.07;3.67;;;7.60;99.90;;;;;;493795;241;27835;-73
2024/03/19 07:16:32;;;;;;;3.87;3.53;;;7.70;99.90;;;;;;493965;241;28026;-73
2024/03/19 07:18:33;;;;;;;4.03;3.70;;;7.70;99.90;;;;;;493927;241;28100;-74
2024/03/19 07:20:35;;;;;;;4.53;4.10;;;7.80;99.90;;;;;;493978;241;28058;-73
2024/03/19 07:22:36;;;;;;;4.40;4.00;;;7.80;99.90;;;;;;493915;241;27989;-74
2024/03/19 07:24:37;;;;;;;4.20;3.80;;;7.90;99.90;;;;;;493904;241;27982;-73
2024/03/19 07:26:38;;;;;;;3.77;3.20;;;7.90;99.90;;;;;;493977;241;27979;-74
2024/03/19 07:28:40;;;;;;;4.90;3.80;;;8.00;99.90;;;;;;493915;241;28572;-74
2024/03/19 07:30:41;;;;;;;4.57;4.17;;;8.10;99.90;;;;;;493956;237;28383;-74
2024/03/19 07:32:42;;;;;;;3.83;3.20;;;8.10;99.90;;;;;;493956;241;28360;-74
2024/03/19 07:34:43;;;;;;;3.50;3.03;;;8.10;99.90;;;;;;493950;241;30346;-73
2024/03/19 07:36:45;;;;;;;3.50;3.20;;;8.20;99.90;;;;;;493964;241;28415;-73
2024/03/19 07:38:46;;;;;;;4.40;3.77;;;8.30;99.90;;;;;;493905;241;28063;-73
2024/03/19 07:40:47;;;;;;;3.40;3.17;;;8.40;99.90;;;;;;493954;241;27922;-72
2024/03/19 07:42:49;;;;;;;4.00;3.60;;;8.40;99.90;;;;;;493916;241;27974;-73
2024/03/19 07:44:50;;;;;;;3.50;3.20;;;8.50;99.90;;;;;;493971;237;28117;-75
2024/03/19 07:46:51;;;;;;;3.50;3.20;;;8.50;99.90;;;;;;493989;241;27961;-73
2024/03/19 07:48:52;;;;;;;3.70;3.40;;;8.60;99.90;;;;;;493930;241;28088;-74
2024/03/19 07:50:56;;;;;;;3.40;3.10;;;8.60;99.90;;;;;;493704;241;27556;-73
2024/03/19 07:52:55;;;;;;;3.63;3.30;;;8.50;99.90;;;;;;493746;241;27998;-73
2024/03/19 07:54:56;;;;;;;3.40;3.10;;;8.50;99.90;;;;;;494001;241;28110;-74
2024/03/19 07:56:57;;;;;;;3.30;3.00;;;8.60;99.90;;;;;;493977;241;27797;-73
2024/03/19 07:58:58;;;;;;;3.90;3.50;;;8.60;99.90;;;;;;493888;241;27975;-74
2024/03/19 08:01:00;;;;;;;3.63;3.33;;;8.60;99.90;;;;;;493910;241;28027;-73
2024/03/19 08:03:01;;;;;;;4.70;3.47;;;8.50;99.90;;;;;;493983;241;27845;-73
2024/03/19 08:05:02;;;;;;;3.00;2.80;;;8.50;99.90;;;;;;494002;241;28000;-74
2024/03/19 08:07:03;;;;;;;3.10;2.80;;;8.50;99.90;;;;;;493944;241;28031;-73
2024/03/19 08:09:05;;;;;;;3.37;3.10;;;8.40;99.90;;;;;;493888;237;28288;-73
2024/03/19 08:11:06;;;;;;;3.60;3.30;;;8.40;99.90;;;;;;493934;241;28942;-73
2024/03/19 08:13:07;;;;;;;3.10;2.70;;;8.30;99.90;;;;;;493978;241;28414;-73
2024/03/19 08:15:09;;;;;;;3.30;3.00;;;8.30;99.90;;;;;;493951;241;28254;-74
2024/03/19 08:17:10;;;;;;;3.20;2.87;;;8.20;99.90;;;;;;493939;241;27952;-74
2024/03/19 08:19:11;;;;;;;3.60;3.30;;;8.20;99.90;;;;;;493920;241;27490;-74
2024/03/19 08:21:13;;;;;;;3.17;2.70;;;8.30;99.90;;;;;;493977;241;27994;-74
2024/03/19 08:23:15;;;;;;;3.07;2.87;;;8.40;99.90;;;;;;493998;241;27680;-74
2024/03/19 08:25:15;;;;;;;4.17;3.77;;;8.50;99.90;;;;;;493880;241;28090;-74
2024/03/19 08:27:16;;;;;;;9.43;3.70;;;8.50;99.90;;;;;;493928;241;28117;-73
2024/03/19 08:29:17;;;;;;;3.40;3.10;;;8.60;99.90;;;;;;493866;241;27977;-73
2024/03/19 08:31:18;;;;;;;5.07;3.27;;;8.70;99.90;;;;;;494000;241;27982;-75
2024/03/19 08:33:20;;;;;;;3.40;3.10;;;8.70;99.90;;;;;;493975;241;28031;-73
2024/03/19 08:35:21;;;;;;;4.50;4.10;;;8.80;99.90;;;;;;493951;241;28093;-73
2024/03/19 08:37:22;;;;;;;3.40;3.10;;;8.90;99.90;;;;;;493942;241;27939;-72
2024/03/19 08:39:24;;;;;;;3.77;3.13;;;8.90;99.90;;;;;;493942;241;28147;-73
2024/03/19 08:41:25;;;;;;;4.87;3.43;;;9.00;99.90;;;;;;493980;241;28361;-74
2024/03/19 08:43:26;;;;;;;3.73;3.43;;;9.00;99.90;;;;;;493975;241;27804;-73
2024/03/19 08:45:27;;;;;;;3.10;2.80;;;9.10;99.90;;;;;;493974;241;28242;-74
2024/03/19 08:47:28;;;;;;;3.83;3.50;;;9.20;99.90;;;;;;493902;241;28895;-73
2024/03/19 08:49:30;;;;;;;4.40;3.90;;;9.30;99.90;;;;;;493941;241;28419;-74
2024/03/19 08:51:31;;;;;;;4.27;3.73;;;9.30;99.90;;;;;;493959;241;28420;-74
2024/03/19 08:53:32;;;;;;;3.70;3.40;;;9.40;99.90;;;;;;493952;241;28490;-73
2024/03/19 08:55:37;;;;;;;5.90;4.13;;;9.40;99.90;;;;;;493958;241;27889;-74
2024/03/19 08:57:35;;;;;;;5.40;4.27;;;9.60;99.90;;;;;;493698;241;27847;-73
2024/03/19 08:59:36;;;;;;;6.30;4.30;;;9.70;99.90;;;;;;493920;237;28075;-73
2024/03/19 09:01:37;;;;;;;6.53;4.90;;;9.80;99.90;;;;;;493925;241;28194;-74
2024/03/19 09:03:38;;;;;;;5.80;4.07;;;9.80;99.90;;;;;;493930;241;27935;-74
2024/03/19 09:05:40;;;;;;;5.50;4.67;;;9.90;99.90;;;;;;493920;241;27970;-73
2024/03/19 09:07:41;;;;;;;4.27;3.87;;;10.00;99.90;;;;;;493962;241;28383;-74
2024/03/19 09:09:46;;;;;;;9.00;4.80;;;10.10;99.90;;;;;;493928;241;27722;-73
2024/03/19 09:11:46;;;;;;;8.70;4.77;;;10.30;99.90;;;;;;493899;241;28477;-73
2024/03/19 09:13:47;;;;;;;5.40;4.47;;;10.40;99.90;;;;;;493941;241;28561;-74
2024/03/19 09:15:49;;;;;;;6.03;4.77;;;10.40;99.90;;;;;;493923;241;28394;-72
2024/03/19 09:17:50;;;;;;;6.50;4.97;;;10.40;99.90;;;;;;493955;238;28577;-73
2024/03/19 09:19:51;;;;;;;5.17;4.20;;;10.50;99.90;;;;;;493769;241;27955;-74
2024/03/19 09:21:52;;;;;;;6.80;5.20;;;10.60;99.90;;;;;;493956;241;28074;-74
2024/03/19 09:23:54;;;;;;;6.27;4.67;;;10.80;99.90;;;;;;493930;237;28142;-74
2024/03/19 09:25:55;;;;;;;3.80;3.50;;;10.90;99.90;;;;;;493912;241;28022;-73
2024/03/19 09:27:56;;;;;;;6.87;4.20;;;11.00;99.90;;;;;;493936;241;28207;-73
2024/03/19 09:29:57;;;;;;;6.03;4.50;;;11.10;99.90;;;;;;493895;241;28306;-74
2024/03/19 09:31:59;;;;;;;6.20;4.47;;;11.30;99.90;;;;;;493910;241;28147;-73
2024/03/19 09:34:00;;;;;;;11.47;4.90;;;11.30;99.90;;;;;;493888;241;28096;-74
2024/03/19 09:36:01;;;;;;;8.37;4.83;;;11.20;99.90;;;;;;493939;241;28705;-74
2024/03/19 09:38:02;;;;;;;7.53;3.97;;;11.40;99.90;;;;;;493870;241;28676;-73
2024/03/19 09:40:06;;;;;;;8.67;4.00;;;11.50;99.90;;;;;;493913;241;28722;-74
2024/03/19 09:42:06;;;;;;;9.67;4.13;;;11.60;99.90;;;;;;493691;241;28775;-73
2024/03/19 09:44:06;;;;;;;5.43;3.60;;;11.80;99.90;;;;;;493877;241;28350;-74
2024/03/19 09:46:07;;;;;;;7.53;3.83;;;11.90;99.90;;;;;;493952;241;28416;-75
2024/03/19 09:48:10;;;;;;;9.50;4.33;;;12.00;99.90;;;;;;493903;241;28268;-73
2024/03/19 09:50:10;;;;;;;5.30;3.23;;;12.10;99.90;;;;;;493889;241;28194;-73
2024/03/19 09:52:11;;;;;;;5.00;3.40;;;12.20;99.90;;;;;;493947;241;28410;-73
2024/03/19 09:54:13;;;;;;;9.60;3.80;;;12.30;99.90;;;;;;494007;241;28494;-73
2024/03/19 09:56:14;;;;;;;5.00;3.00;;;12.30;99.90;;;;;;493987;241;28622;-75
2024/03/19 09:58:15;;;;;;;3.07;2.77;;;12.50;99.90;;;;;;493960;241;28983;-72
2024/03/19 10:00:16;;;;;;;4.27;3.27;;;12.60;99.90;;;;;;493990;241;28576;-73
2024/03/19 10:02:18;;;;;;;4.40;2.63;;;12.70;99.90;;;;;;493993;241;29557;-73
2024/03/19 10:04:19;;;;;;;5.90;3.33;;;12.80;99.90;;;;;;494008;241;28718;-73
2024/03/19 10:06:20;;;;;;;2.60;2.40;;;12.80;99.90;;;;;;494028;237;28324;-73
2024/03/19 10:08:21;;;;;;;4.13;3.20;;;12.90;99.90;;;;;;493945;241;28207;-73
2024/03/19 10:10:24;;;;;;;3.80;3.10;;;12.90;99.90;;;;;;493954;237;28400;-74
2024/03/19 10:12:24;;;;;;;6.93;2.40;;;12.90;99.90;;;;;;493780;241;28314;-74
2024/03/19 10:14:25;;;;;;;2.53;2.33;;;13.00;99.90;;;;;;493969;241;28294;-73
2024/03/19 10:16:26;;;;;;;4.73;2.70;;;13.10;99.90;;;;;;493973;241;28429;-73
2024/03/19 10:18:28;;;;;;;4.17;2.43;;;13.10;99.90;;;;;;493874;241;28178;-73
2024/03/19 10:20:29;;;;;;;3.20;2.40;;;13.00;99.90;;;;;;493925;241;28199;-72
2024/03/19 10:22:30;;;;;;;3.03;2.73;;;13.00;99.90;;;;;;493996;241;28201;-74
2024/03/19 10:24:32;;;;;;;4.50;2.60;;;13.10;99.90;;;;;;493940;241;28609;-73
2024/03/19 10:26:33;;;;;;;4.30;2.73;;;13.00;99.90;;;;;;493952;241;28702;-73
2024/03/19 10:28:34;;;;;;;3.47;2.57;;;13.00;99.90;;;;;;493907;237;28730;-73
2024/03/19 10:30:35;;;;;;;3.63;2.23;;;13.20;99.90;;;;;;493983;237;28152;-72
2024/03/19 10:32:37;;;;;;;5.23;3.00;;;13.20;99.90;;;;;;493969;241;28235;-75
2024/03/19 10:34:38;;;;;;;2.20;1.90;;;13.00;99.90;;;;;;493935;241;28281;-73
2024/03/19 10:36:39;;;;;;;5.53;2.40;;;13.00;99.90;;;;;;493943;241;28210;-74
2024/03/19 10:38:40;;;;;;;3.33;2.43;;;13.00;99.90;;;;;;493963;241;28344;-73
2024/03/19 10:40:41;;;;;;;6.00;2.70;;;13.20;99.90;;;;;;493983;241;28166;-73
2024/03/19 10:42:44;;;;;;;3.97;2.43;;;;;;;;;;493963;241;28425;-73
2024/03/19 10:44:45;;;;;;;3.07;2.63;;;13.30;99.90;;;;;;493927;241;26624;-73
2024/03/19 10:46:46;;;;;;;3.50;2.00;;;13.50;99.90;;;;;;493988;241;28443;-75
2024/03/19 10:48:47;;;;;;;3.40;2.00;;;13.50;99.90;;;;;;493948;241;28164;-73
2024/03/19 10:50:49;;;;;;;3.73;1.87;;;13.60;99.90;;;;;;493943;237;28210;-74